Time;durP1;ratioP1;P1;durP2;ratioP2;P2;SDS_P1;SDS_P2;PMS_P1;PMS_P2;Temp;Humidity;BMP_temperature;BMP_pressure;BME280_temperature;BME280_humidity;BME280_pressure;Samples;Min_cycle;Max_cycle;Signal;HPM_P1;HPM_P2
2022/06/11 00:01:19;;;;;;;;;;;;;;;24.76;47.06;99232.16;4471770;31;34911;-81
2022/06/11 00:03:48;;;;;;;;;;;;;;;24.25;48.18;99236.94;4493240;31;34344;-81
2022/06/11 00:06:15;;;;;;;;;;;;;;;24.34;48.13;99234.84;4490978;31;34215;-82
2022/06/11 00:08:43;;;;;;;;;;;;;;;25.71;44.58;99233.94;4499261;31;33399;-82
2022/06/11 00:11:11;;;;;;;;;;;;;;;25.28;45.63;99228.97;4498748;31;34221;-81
2022/06/11 00:13:39;;;;;;;;;;;;;;;24.83;46.68;99230.09;4498952;31;35032;-81
2022/06/11 00:16:06;;;;;;;;;;;;;;;24.40;47.81;99218.72;4498144;31;34047;-81
2022/06/11 00:18:34;;;;;;;;;;;;;;;24.11;48.56;99234.00;4498870;31;33131;-81
2022/06/11 00:21:01;;;;;;;;;;;;;;;23.92;49.13;99233.03;4498817;31;33594;-81
2022/06/11 00:23:28;;;;;;;;;;;;;;;24.67;47.30;99233.41;4498942;31;35428;-82
2022/06/11 00:25:55;;;;;;;;;;;;;;;23.63;49.80;99237.66;4499846;31;33644;-84
2022/06/11 00:28:23;;;;;;;;;;;;;;;23.83;49.37;99246.63;4499918;31;33355;-81
2022/06/11 00:30:50;;;;;;;;;;;;;;;23.94;48.99;99236.47;4505056;31;33675;-82
2022/06/11 00:33:18;;;;;;;;;;;;;;;24.30;48.16;99231.44;4498919;31;33825;-83
2022/06/11 00:35:46;;;;;;;;;;;;;;;24.11;48.61;99233.16;4511017;31;33482;-84
2022/06/11 00:38:14;;;;;;;;;;;;;;;23.71;49.64;99235.59;4483449;32;33381;-83
2022/06/11 00:40:43;;;;;;;;;;;;;;;24.02;48.87;99239.69;4489904;31;33364;-84
2022/06/11 00:43:12;;;;;;;;;;;;;;;24.22;48.32;99241.50;4497780;31;34358;-83
2022/06/11 00:45:45;;;;;;;;;;;;;;;24.03;48.79;99249.34;4498965;31;33415;-84
2022/06/11 00:48:36;;;;;;;;;;;;;;;24.13;48.48;99248.06;4498624;31;33581;-83
2022/06/11 00:51:06;;;;;;;;;;;;;;;24.00;48.88;99247.69;4490655;31;35457;-82
2022/06/11 00:53:38;;;;;;;;;;;;;;;24.52;47.53;99237.59;4505804;31;35278;-83
2022/06/11 00:56:07;;;;;;;;;;;;;;;23.53;49.96;99242.47;4485470;31;34284;-84
2022/06/11 00:58:35;;;;;;;;;;;;;;;23.38;50.31;99250.16;4497403;31;34024;-83
2022/06/11 01:01:02;;;;;;;;;;;;;;;24.31;48.03;99242.91;4497347;31;33792;-83
2022/06/11 01:03:38;;;;;;;;;;;;;;;23.87;49.00;99251.78;4484906;31;34349;-84
2022/06/11 01:06:29;;;;;;;;;;;;;;;23.29;50.55;99252.19;4496590;31;33554;-83
2022/06/11 01:08:59;;;;;;;;;;;;;;;23.47;50.25;99244.50;4497295;31;33903;-83
2022/06/11 01:11:42;;;;;;;;;;;;;;;23.84;49.12;99235.16;4497827;31;34000;-83
2022/06/11 01:14:24;;;;;;;;;;;;;;;23.60;49.62;99244.88;4512790;31;35158;-83
2022/06/11 01:16:58;;;;;;;;;;;;;;;24.18;48.06;99245.22;4514108;31;34926;-83
2022/06/11 01:19:44;;;;;;;;;;;;;;;24.07;48.21;99243.00;4514123;31;33288;-82
2022/06/11 01:22:17;;;;;;;;;;;;;;;24.56;47.05;99240.13;4508203;31;35021;-83
2022/06/11 01:24:58;;;;;;;;;;;;;;;24.37;47.42;99234.72;4496967;31;34874;-83
2022/06/11 01:27:29;;;;;;;;;;;;;;;24.19;47.80;99239.84;4482911;32;34781;-83
2022/06/11 01:29:59;;;;;;;;;;;;;;;23.64;49.01;99238.53;4484934;31;33419;-86
2022/06/11 01:32:45;;;;;;;;;;;;;;;23.02;50.76;99246.16;4504346;31;35083;-84
2022/06/11 01:35:31;;;;;;;;;;;;;;;22.44;52.46;99242.06;4503637;31;33550;-84
2022/06/11 01:38:03;;;;;;;;;;;;;;;22.67;51.78;99250.03;4509900;31;34237;-84
2022/06/11 01:40:43;;;;;;;;;;;;;;;22.91;51.05;99250.09;4498925;31;33333;-83
2022/06/11 01:43:16;;;;;;;;;;;;;;;22.65;51.80;99251.88;4487267;31;34885;-84
2022/06/11 01:45:43;;;;;;;;;;;;;;;23.57;49.14;99248.53;4486236;31;34114;-84
2022/06/11 01:48:13;;;;;;;;;;;;;;;23.41;49.45;99252.66;4500323;31;33637;-85
2022/06/11 01:50:42;;;;;;;;;;;;;;;23.64;49.00;99249.13;4498901;31;33438;-83
2022/06/11 01:53:23;;;;;;;;;;;;;;;23.79;48.29;99254.72;4496326;31;34887;-83
2022/06/11 01:55:50;;;;;;;;;;;;;;;23.73;48.41;99252.31;4498960;31;35260;-83
2022/06/11 01:58:18;;;;;;;;;;;;;;;24.23;47.28;99252.03;4510352;31;34995;-84
2022/06/11 02:01:03;;;;;;;;;;;;;;;23.67;48.42;99247.25;4515622;31;33089;-84
2022/06/11 02:03:52;;;;;;;;;;;;;;;24.58;46.32;99248.84;4514720;31;34675;-83
2022/06/11 02:06:25;;;;;;;;;;;;;;;24.98;45.20;99251.47;4505572;31;34438;-84
2022/06/11 02:09:25;;;;;;;;;;;;;;;25.39;44.52;99253.22;4493731;31;34226;-85
2022/06/11 02:11:56;;;;;;;;;;;;;;;25.72;43.89;99251.63;4473659;31;33114;-84
2022/06/11 02:14:28;;;;;;;;;;;;;;;25.89;43.30;99252.63;4498565;31;34287;-84
2022/06/11 02:17:06;;;;;;;;;;;;;;;25.94;43.26;99254.13;4498645;31;34548;-84
2022/06/11 02:19:36;;;;;;;;;;;;;;;25.81;43.38;99255.66;4483814;31;34425;-85
2022/06/11 02:22:25;;;;;;;;;;;;;;;26.12;42.60;99248.84;4508521;31;33154;-84
2022/06/11 02:24:54;;;;;;;;;;;;;;;26.16;42.59;99250.41;4505656;31;34178;-82
2022/06/11 02:27:22;;;;;;;;;;;;;;;26.10;42.10;99242.72;4515906;31;34078;-83
2022/06/11 02:29:51;;;;;;;;;;;;;;;25.21;44.03;99250.47;4516272;31;33756;-85
2022/06/11 02:32:19;;;;;;;;;;;;;;;25.19;44.08;99257.66;4501601;31;34170;-85
2022/06/11 02:34:48;;;;;;;;;;;;;;;24.65;45.04;99253.81;4498674;31;34922;-85
2022/06/11 02:37:17;;;;;;;;;;;;;;;24.14;46.67;99267.47;4498223;31;34358;-86
2022/06/11 02:39:44;;;;;;;;;;;;;;;24.07;46.92;99272.13;4498493;31;34109;-84
2022/06/11 02:42:13;;;;;;;;;;;;;;;22.65;50.62;99270.37;4485306;31;33433;-83
2022/06/11 02:44:40;;;;;;;;;;;;;;;23.23;49.15;99268.31;4484413;32;34254;-83
2022/06/11 02:47:08;;;;;;;;;;;;;;;23.20;49.07;99270.22;4483854;32;34499;-83
2022/06/11 02:49:36;;;;;;;;;;;;;;;23.59;47.96;99272.25;4483756;32;33570;-82
2022/06/11 02:52:05;;;;;;;;;;;;;;;24.34;46.16;99271.94;4495923;31;33329;-82
2022/06/11 02:54:32;;;;;;;;;;;;;;;23.82;47.22;99276.69;4507689;31;35599;-84
2022/06/11 02:57:01;;;;;;;;;;;;;;;23.31;48.73;99278.63;4500693;31;34239;-84
2022/06/11 02:59:29;;;;;;;;;;;;;;;24.08;46.80;99287.09;4489681;31;34972;-82
2022/06/11 03:01:56;;;;;;;;;;;;;;;24.16;46.64;99279.69;4484686;31;33391;-85
2022/06/11 03:04:25;;;;;;;;;;;;;;;23.87;47.12;99278.25;4506003;31;35087;-83
2022/06/11 03:06:52;;;;;;;;;;;;;;;24.10;46.69;99276.47;4499501;31;34415;-84
2022/06/11 03:09:21;;;;;;;;;;;;;;;24.38;46.22;99281.47;4497964;31;35068;-84
2022/06/11 03:11:48;;;;;;;;;;;;;;;24.31;46.16;99280.00;4496568;31;33134;-85
2022/06/11 03:14:16;;;;;;;;;;;;;;;23.55;47.97;99292.69;4504983;31;35180;-85
2022/06/11 03:16:43;;;;;;;;;;;;;;;23.49;48.20;99285.88;4509309;31;35223;-85
2022/06/11 03:19:13;;;;;;;;;;;;;;;24.18;46.53;99282.31;4504048;31;33863;-83
2022/06/11 03:21:41;;;;;;;;;;;;;;;24.39;46.04;99278.78;4507168;31;33564;-85
2022/06/11 03:24:08;;;;;;;;;;;;;;;24.48;45.78;99285.50;4505374;31;34108;-84
2022/06/11 03:26:36;;;;;;;;;;;;;;;23.93;47.12;99285.06;4509731;31;34419;-83
2022/06/11 03:29:03;;;;;;;;;;;;;;;24.06;47.00;99298.69;4498488;31;33965;-82
2022/06/11 03:31:31;;;;;;;;;;;;;;;24.32;46.53;99294.97;4497622;31;34263;-82
2022/06/11 03:33:58;;;;;;;;;;;;;;;23.95;47.35;99299.97;4498013;31;33563;-85
2022/06/11 03:36:25;;;;;;;;;;;;;;;23.60;48.22;99301.34;4499368;31;34507;-83
2022/06/11 03:38:53;;;;;;;;;;;;;;;24.06;47.12;99312.81;4499378;31;33783;-85
2022/06/11 03:41:21;;;;;;;;;;;;;;;24.05;47.21;99308.41;4504632;31;34105;-82
2022/06/11 03:43:49;;;;;;;;;;;;;;;23.72;48.09;99306.19;4515259;31;34041;-85
2022/06/11 03:46:17;;;;;;;;;;;;;;;24.61;46.07;99307.91;4514071;31;34145;-84
2022/06/11 03:48:45;;;;;;;;;;;;;;;24.76;45.57;99304.59;4514768;31;35297;-83
2022/06/11 03:51:12;;;;;;;;;;;;;;;24.88;45.07;99295.22;4509517;31;32881;-85
2022/06/11 03:53:40;;;;;;;;;;;;;;;24.63;46.10;99300.75;4499275;31;34018;-84
2022/06/11 03:56:09;;;;;;;;;;;;;;;24.68;45.81;99304.06;4499337;31;35218;-83
2022/06/11 03:58:36;;;;;;;;;;;;;;;25.09;45.05;99297.88;4499324;31;34176;-85
2022/06/11 04:01:16;;;;;;;;;;;;;;;25.76;43.99;99294.84;4499730;31;34060;-84
2022/06/11 04:03:45;;;;;;;;;;;;;;;25.53;43.94;99300.31;4511609;31;34126;-84
2022/06/11 04:06:12;;;;;;;;;;;;;;;25.61;43.79;99307.03;4497965;31;35254;-83
2022/06/11 04:08:40;;;;;;;;;;;;;;;25.80;43.70;99300.84;4499400;31;34048;-85
2022/06/11 04:11:07;;;;;;;;;;;;;;;26.25;42.48;99295.13;4501178;31;33519;-85
2022/06/11 04:13:36;;;;;;;;;;;;;;;25.88;43.44;99290.75;4513847;31;33561;-86
2022/06/11 04:16:04;;;;;;;;;;;;;;;26.30;42.93;99298.44;4515003;31;34187;-85
2022/06/11 04:18:36;;;;;;;;;;;;;;;27.29;40.90;99296.94;4513711;31;34067;-85
2022/06/11 04:21:05;;;;;;;;;;;;;;;26.90;41.13;99290.09;4513137;31;33980;-85
2022/06/11 04:23:33;;;;;;;;;;;;;;;27.34;40.76;99305.53;4499618;31;34128;-86
2022/06/11 04:26:01;;;;;;;;;;;;;;;26.66;41.42;99298.38;4512785;31;35271;-86
2022/06/11 04:28:29;;;;;;;;;;;;;;;27.69;39.10;99292.09;4499021;31;33711;-85
2022/06/11 04:30:57;;;;;;;;;;;;;;;26.85;40.22;99286.81;4499420;31;34746;-87
2022/06/11 04:33:24;;;;;;;;;;;;;;;27.20;39.58;99289.44;4498537;31;35157;-86
2022/06/11 04:35:52;;;;;;;;;;;;;;;27.96;38.56;99290.59;4498957;31;34285;-85
2022/06/11 04:38:20;;;;;;;;;;;;;;;28.24;37.87;99281.84;4499169;31;34160;-86
2022/06/11 04:40:47;;;;;;;;;;;;;;;28.79;36.69;99283.09;4497535;31;33501;-85
2022/06/11 04:43:15;;;;;;;;;;;;;;;29.19;36.52;99292.22;4498638;31;34633;-86
2022/06/11 04:45:42;;;;;;;;;;;;;;;29.07;36.59;99293.84;4511737;31;33770;-86
2022/06/11 04:48:09;;;;;;;;;;;;;;;27.85;38.49;99296.53;4514108;31;33898;-86
2022/06/11 04:50:37;;;;;;;;;;;;;;;28.14;38.74;99302.00;4493795;31;32928;-86
2022/06/11 04:53:04;;;;;;;;;;;;;;;27.42;39.84;99305.97;4488102;31;34274;-86
2022/06/11 04:55:32;;;;;;;;;;;;;;;27.56;39.81;99314.06;4497815;31;34386;-85
2022/06/11 04:57:59;;;;;;;;;;;;;;;27.49;40.20;99314.50;4497408;31;34124;-87
2022/06/11 05:00:28;;;;;;;;;;;;;;;26.47;42.13;99308.22;4506520;31;34070;-85
2022/06/11 05:02:55;;;;;;;;;;;;;;;26.33;42.74;99308.03;4513076;31;35037;-84
2022/06/11 05:05:23;;;;;;;;;;;;;;;26.52;42.59;99313.31;4514562;31;34285;-85
2022/06/11 05:07:50;;;;;;;;;;;;;;;26.14;43.54;99316.94;4514635;31;34443;-86
2022/06/11 05:10:24;;;;;;;;;;;;;;;25.94;44.28;99324.97;4498446;31;33979;-86
2022/06/11 05:12:52;;;;;;;;;;;;;;;25.96;44.36;99331.09;4481581;31;33934;-84
2022/06/11 05:15:19;;;;;;;;;;;;;;;26.08;43.86;99337.63;4493604;31;34311;-86
2022/06/11 05:17:47;;;;;;;;;;;;;;;25.46;45.30;99339.59;4510205;31;33933;-86
2022/06/11 05:20:14;;;;;;;;;;;;;;;25.86;44.35;99341.28;4505185;31;33417;-86
2022/06/11 05:22:42;;;;;;;;;;;;;;;26.01;44.35;99347.66;4514009;31;34035;-85
2022/06/11 05:25:09;;;;;;;;;;;;;;;25.96;44.36;99349.69;4514116;31;34170;-85
2022/06/11 05:27:40;;;;;;;;;;;;;;;24.76;47.01;99349.66;4513046;31;33628;-86
2022/06/11 05:30:07;;;;;;;;;;;;;;;25.77;45.00;99348.81;4511093;31;34060;-86
2022/06/11 05:32:36;;;;;;;;;;;;;;;25.48;45.75;99354.50;4513850;31;33662;-85
2022/06/11 05:35:05;;;;;;;;;;;;;;;25.74;45.14;99347.13;4513782;31;33809;-86
2022/06/11 05:37:32;;;;;;;;;;;;;;;25.42;45.97;99351.25;4508581;31;34094;-86
2022/06/11 05:39:59;;;;;;;;;;;;;;;25.23;46.76;99344.13;4498043;31;33182;-85
2022/06/11 05:42:27;;;;;;;;;;;;;;;25.59;45.86;99351.34;4498070;31;34145;-85
2022/06/11 05:44:54;;;;;;;;;;;;;;;26.60;43.30;99348.38;4497721;31;35056;-84
2022/06/11 05:47:23;;;;;;;;;;;;;;;26.31;44.34;99352.44;4498068;31;34210;-85
2022/06/11 05:49:51;;;;;;;;;;;;;;;25.98;44.49;99353.13;4496617;31;33220;-85
2022/06/11 05:52:20;;;;;;;;;;;;;;;26.61;43.32;99355.41;4492709;31;33994;-86
2022/06/11 05:54:47;;;;;;;;;;;;;;;26.26;44.63;99352.66;4481246;32;34473;-84
2022/06/11 05:57:16;;;;;;;;;;;;;;;26.43;44.41;99357.16;4482129;32;34190;-84
2022/06/11 05:59:48;;;;;;;;;;;;;;;26.03;45.34;99359.09;4480561;31;33476;-86
2022/06/11 06:02:16;;;;;;;;;;;;;;;26.24;44.77;99369.63;4498969;31;34268;-85
2022/06/11 06:04:43;;;;;;;;;;;;;;;26.20;44.74;99371.56;4481137;31;33855;-85
2022/06/11 06:07:11;;;;;;;;;;;;;;;26.91;43.13;99368.97;4498183;31;33952;-85
2022/06/11 06:09:38;;;;;;;;;;;;;;;25.85;45.49;99368.78;4513760;31;33397;-85
2022/06/11 06:12:06;;;;;;;;;;;;;;;26.04;45.10;99371.44;4513691;31;33636;-85
2022/06/11 06:14:33;;;;;;;;;;;;;;;26.32;44.72;99367.44;4515527;31;35018;-85
2022/06/11 06:17:00;;;;;;;;;;;;;;;26.73;44.42;99373.41;4511242;31;33694;-85
2022/06/11 06:19:48;;;;;;;;;;;;;;;27.23;43.19;99358.47;4500059;31;32867;-86
2022/06/11 06:22:15;;;;;;;;;;;;;;;27.72;42.79;99369.16;4501018;31;33554;-86
2022/06/11 06:24:47;;;;;;;;;;;;;;;27.22;43.01;99362.94;4514495;31;35219;-84
2022/06/11 06:27:15;;;;;;;;;;;;;;;27.14;43.45;99360.69;4498881;31;32819;-85
2022/06/11 06:29:42;;;;;;;;;;;;;;;28.67;39.99;99354.06;4501801;31;34018;-85
2022/06/11 06:32:09;;;;;;;;;;;;;;;27.76;41.89;99349.44;4507185;31;34289;-84
2022/06/11 06:34:36;;;;;;;;;;;;;;;28.09;41.36;99350.22;4508470;31;34277;-83
2022/06/11 06:37:03;;;;;;;;;;;;;;;27.42;41.99;99352.09;4513991;31;34723;-87
2022/06/11 06:39:32;;;;;;;;;;;;;;;27.06;42.51;99338.06;4515818;31;35033;-84
2022/06/11 06:41:59;;;;;;;;;;;;;;;28.50;39.32;99344.38;4515362;31;34304;-84
2022/06/11 06:44:30;;;;;;;;;;;;;;;28.48;39.17;99353.41;4516034;31;34186;-83
2022/06/11 06:46:57;;;;;;;;;;;;;;;28.43;40.51;99364.34;4515379;31;34870;-84
2022/06/11 06:49:25;;;;;;;;;;;;;;;28.41;40.77;99363.56;4500919;31;33934;-84
2022/06/11 06:51:52;;;;;;;;;;;;;;;28.58;38.64;99366.13;4492628;31;34058;-84
2022/06/11 06:54:20;;;;;;;;;;;;;;;28.72;38.61;99361.81;4483657;32;35402;-85
2022/06/11 06:56:47;;;;;;;;;;;;;;;29.19;37.98;99361.66;4483824;32;33799;-85
2022/06/11 06:59:14;;;;;;;;;;;;;;;29.74;37.17;99363.63;4513702;31;32887;-84
2022/06/11 07:01:41;;;;;;;;;;;;;;;30.50;35.87;99357.84;4501380;31;33831;-85
2022/06/11 07:04:09;;;;;;;;;;;;;;;29.30;39.26;99361.00;4499635;31;35265;-85
2022/06/11 07:06:53;;;;;;;;;;;;;;;28.66;39.71;99356.81;4503443;31;34837;-87
2022/06/11 07:09:20;;;;;;;;;;;;;;;28.64;39.96;99359.59;4499675;31;33128;-86
2022/06/11 07:11:48;;;;;;;;;;;;;;;28.89;38.78;99364.31;4499748;31;34218;-85
2022/06/11 07:14:15;;;;;;;;;;;;;;;29.08;38.92;99361.44;4504071;31;34168;-83
2022/06/11 07:16:44;;;;;;;;;;;;;;;28.26;40.26;99365.28;4482044;31;33894;-83
2022/06/11 07:19:13;;;;;;;;;;;;;;;28.24;40.67;99369.84;4483706;31;33458;-84
2022/06/11 07:21:41;;;;;;;;;;;;;;;29.05;39.50;99359.81;4483677;32;35035;-85
2022/06/11 07:24:16;;;;;;;;;;;;;;;28.42;40.33;99365.31;4485233;31;33717;-83
2022/06/11 07:26:47;;;;;;;;;;;;;;;27.63;41.53;99363.41;4484727;31;34739;-81
2022/06/11 07:29:18;;;;;;;;;;;;;;;28.90;39.92;99362.50;4485570;31;34163;-81
2022/06/11 07:31:45;;;;;;;;;;;;;;;29.23;38.95;99356.97;4496605;31;34305;-81
2022/06/11 07:34:13;;;;;;;;;;;;;;;28.76;38.66;99358.00;4493966;31;34211;-82
2022/06/11 07:36:40;;;;;;;;;;;;;;;28.79;40.54;99363.13;4498831;31;34023;-84
2022/06/11 07:39:08;;;;;;;;;;;;;;;28.76;41.42;99352.66;4489206;31;33586;-82
2022/06/11 07:41:35;;;;;;;;;;;;;;;28.70;40.04;99353.87;4502123;31;34935;-83
2022/06/11 07:44:02;;;;;;;;;;;;;;;28.99;40.14;99354.84;4497222;31;35808;-85
2022/06/11 07:46:30;;;;;;;;;;;;;;;29.23;39.64;99355.16;4497996;31;33913;-83
2022/06/11 07:49:00;;;;;;;;;;;;;;;29.64;38.00;99350.94;4500859;31;32819;-81
2022/06/11 07:51:37;;;;;;;;;;;;;;;29.60;38.47;99368.13;4498598;31;33784;-84
2022/06/11 07:54:04;;;;;;;;;;;;;;;28.97;40.05;99364.72;4505143;31;35169;-83
2022/06/11 07:56:32;;;;;;;;;;;;;;;30.30;39.09;99368.97;4513556;31;34084;-85
2022/06/11 07:58:59;;;;;;;;;;;;;;;30.04;38.21;99371.50;4498784;31;34143;-84
2022/06/11 08:01:26;;;;;;;;;;;;;;;29.88;38.65;99373.41;4499200;31;34337;-85
2022/06/11 08:03:54;;;;;;;;;;;;;;;29.35;39.07;99361.56;4503316;31;34470;-83
2022/06/11 08:06:21;;;;;;;;;;;;;;;30.76;35.98;99361.47;4498867;31;34663;-84
2022/06/11 08:08:50;;;;;;;;;;;;;;;30.30;36.93;99363.63;4497903;31;33303;-84
2022/06/11 08:11:17;;;;;;;;;;;;;;;29.69;38.02;99371.06;4502136;31;33543;-82
2022/06/11 08:13:46;;;;;;;;;;;;;;;29.30;39.49;99367.19;4515017;31;34194;-82
2022/06/11 08:16:14;;;;;;;;;;;;;;;29.81;36.84;99364.06;4513896;31;33547;-85
2022/06/11 08:18:42;;;;;;;;;;;;;;;28.60;38.95;99366.03;4502872;31;34355;-86
2022/06/11 08:21:09;;;;;;;;;;;;;;;29.39;39.12;99364.91;4510777;31;34956;-85
2022/06/11 08:23:37;;;;;;;;;;;;;;;29.44;38.84;99366.38;4494499;31;34001;-84
2022/06/11 08:26:04;;;;;;;;;;;;;;;28.80;38.73;99367.53;4507243;31;34869;-85
2022/06/11 08:28:31;;;;;;;;;;;;;;;29.18;38.97;99356.41;4506289;31;33147;-82
2022/06/11 08:31:02;;;;;;;;;;;;;;;29.38;37.60;99358.72;4499819;31;34338;-83
2022/06/11 08:33:29;;;;;;;;;;;;;;;29.82;36.47;99360.47;4499371;31;35301;-81
2022/06/11 08:35:56;;;;;;;;;;;;;;;29.33;37.85;99358.16;4494241;31;34318;-83
2022/06/11 08:38:24;;;;;;;;;;;;;;;29.87;37.81;99361.03;4498892;31;33566;-83
2022/06/11 08:40:53;;;;;;;;;;;;;;;30.61;35.75;99354.44;4500090;31;34299;-84
2022/06/11 08:43:25;;;;;;;;;;;;;;;29.85;38.04;99354.03;4503436;31;34218;-84
2022/06/11 08:45:53;;;;;;;;;;;;;;;30.08;36.90;99357.91;4504932;31;34938;-83
2022/06/11 08:48:32;;;;;;;;;;;;;;;30.18;36.27;99353.72;4498364;31;33527;-82
2022/06/11 08:51:18;;;;;;;;;;;;;;;30.26;37.38;99360.28;4500912;31;33888;-83
2022/06/11 08:53:45;;;;;;;;;;;;;;;30.29;36.42;99354.75;4503357;31;35540;-82
2022/06/11 08:56:17;;;;;;;;;;;;;;;29.96;37.58;99355.06;4502014;31;33657;-84
2022/06/11 08:58:48;;;;;;;;;;;;;;;29.86;38.40;99353.97;4501113;31;33736;-85
2022/06/11 09:01:29;;;;;;;;;;;;;;;28.90;39.88;99350.03;4490817;31;35174;-84
2022/06/11 09:04:05;;;;;;;;;;;;;;;29.79;38.58;99342.81;4494789;31;33897;-83
2022/06/11 09:06:48;;;;;;;;;;;;;;;29.56;39.11;99349.56;4497261;31;34891;-84
2022/06/11 09:09:34;;;;;;;;;;;;;;;30.20;37.84;99350.00;4498141;31;33869;-86
2022/06/11 09:12:12;;;;;;;;;;;;;;;29.95;37.95;99344.50;4498271;31;34070;-84
2022/06/11 09:14:42;;;;;;;;;;;;;;;30.34;37.98;99340.22;4496857;31;33754;-84
2022/06/11 09:17:17;;;;;;;;;;;;;;;30.29;37.84;99345.87;4498356;31;34761;-84
2022/06/11 09:19:51;;;;;;;;;;;;;;;30.77;36.40;99336.41;4497135;31;33549;-85
2022/06/11 09:22:33;;;;;;;;;;;;;;;30.54;36.23;99343.28;4498127;31;34982;-84
2022/06/11 09:25:06;;;;;;;;;;;;;;;29.91;38.17;99346.50;4498060;31;34135;-83
2022/06/11 09:27:51;;;;;;;;;;;;;;;30.63;37.18;99338.28;4498384;31;33919;-83
2022/06/11 09:30:19;;;;;;;;;;;;;;;30.81;36.33;99337.06;4496883;31;33205;-84
2022/06/11 09:32:58;;;;;;;;;;;;;;;30.95;37.33;99333.44;4496823;31;35168;-86
2022/06/11 09:35:28;;;;;;;;;;;;;;;30.30;36.87;99335.06;4497250;31;33798;-85
2022/06/11 09:38:00;;;;;;;;;;;;;;;30.33;37.92;99338.50;4498320;31;34867;-87
2022/06/11 09:40:41;;;;;;;;;;;;;;;29.37;38.66;99335.63;4496884;31;34005;-86
2022/06/11 09:43:09;;;;;;;;;;;;;;;29.36;38.30;99336.59;4498053;31;35123;-85
2022/06/11 09:46:03;;;;;;;;;;;;;;;29.81;38.32;99337.34;4497901;31;35065;-86
2022/06/11 09:48:33;;;;;;;;;;;;;;;28.47;40.09;99336.56;4501082;31;34105;-84
2022/06/11 09:51:21;;;;;;;;;;;;;;;30.03;36.41;99336.84;4516108;31;33378;-85
2022/06/11 09:53:49;;;;;;;;;;;;;;;29.41;38.33;99339.84;4516047;31;34671;-84
2022/06/11 09:56:19;;;;;;;;;;;;;;;29.90;38.03;99334.09;4516004;31;34417;-84
2022/06/11 09:58:47;;;;;;;;;;;;;;;29.44;39.56;99339.66;4515723;31;33846;-83
2022/06/11 10:01:18;;;;;;;;;;;;;;;30.32;38.39;99328.75;4516069;31;33499;-84
2022/06/11 10:03:51;;;;;;;;;;;;;;;30.81;36.37;99333.53;4514937;31;34350;-86
2022/06/11 10:06:18;;;;;;;;;;;;;;;29.74;38.90;99338.72;4514799;31;35205;-87
2022/06/11 10:08:49;;;;;;;;;;;;;;;29.17;37.97;99331.53;4516447;31;34727;-84
2022/06/11 10:11:20;;;;;;;;;;;;;;;29.70;37.13;99335.38;4514671;31;33985;-85
2022/06/11 10:14:29;;;;;;;;;;;;;;;30.77;35.19;99332.88;4516034;31;34394;-84
2022/06/11 10:17:10;;;;;;;;;;;;;;;30.50;36.91;99332.91;4484723;31;35158;-85
2022/06/11 10:20:00;;;;;;;;;;;;;;;30.62;36.40;99328.53;4514393;31;33954;-85
2022/06/11 10:22:29;;;;;;;;;;;;;;;29.99;37.19;99325.47;4514758;31;34325;-86
2022/06/11 10:25:06;;;;;;;;;;;;;;;30.22;35.95;99325.81;4514432;31;33917;-86
2022/06/11 10:27:36;;;;;;;;;;;;;;;29.73;38.52;99326.28;4515794;31;35127;-85
2022/06/11 10:30:18;;;;;;;;;;;;;;;30.68;36.61;99328.09;4514776;31;34141;-86
2022/06/11 10:32:46;;;;;;;;;;;;;;;30.42;36.45;99333.41;4514975;31;33774;-83
2022/06/11 10:35:13;;;;;;;;;;;;;;;29.41;37.95;99320.28;4483291;31;35104;-86
2022/06/11 10:37:45;;;;;;;;;;;;;;;29.87;37.77;99315.59;4498363;31;34535;-83
2022/06/11 10:40:22;;;;;;;;;;;;;;;29.38;37.91;99321.31;4514443;31;34789;-83
2022/06/11 10:43:04;;;;;;;;;;;;;;;29.65;37.56;99309.88;4502950;31;32913;-84
2022/06/11 10:45:32;;;;;;;;;;;;;;;30.25;36.54;99315.78;4498232;31;34224;-82
2022/06/11 10:48:00;;;;;;;;;;;;;;;30.24;36.45;99313.22;4498800;31;33923;-84
2022/06/11 10:50:33;;;;;;;;;;;;;;;30.49;36.62;99313.28;4498541;31;33692;-85
2022/06/11 10:53:19;;;;;;;;;;;;;;;31.12;35.34;99324.25;4498535;31;33097;-84
2022/06/11 10:55:51;;;;;;;;;;;;;;;30.20;35.91;99317.06;4499752;31;34581;-85
2022/06/11 10:58:37;;;;;;;;;;;;;;;30.54;36.06;99321.88;4487906;31;34468;-84
2022/06/11 11:01:19;;;;;;;;;;;;;;;29.69;37.40;99322.94;4484143;32;34767;-85
2022/06/11 11:04:10;;;;;;;;;;;;;;;29.88;36.28;99319.97;4487239;31;32723;-85
2022/06/11 11:06:37;;;;;;;;;;;;;;;28.79;38.43;99317.78;4508509;31;34097;-84
2022/06/11 11:09:06;;;;;;;;;;;;;;;30.22;35.83;99315.13;4515276;31;35296;-85
2022/06/11 11:11:44;;;;;;;;;;;;;;;29.09;37.04;99310.66;4513488;31;33893;-85
2022/06/11 11:14:16;;;;;;;;;;;;;;;29.57;36.15;99308.56;4502780;31;33151;-83
2022/06/11 11:16:48;;;;;;;;;;;;;;;29.95;35.60;99305.25;4491045;31;33431;-82
2022/06/11 11:19:23;;;;;;;;;;;;;;;30.04;37.07;99312.69;4499657;31;34607;-83
2022/06/11 11:21:56;;;;;;;;;;;;;;;30.57;34.38;99310.09;4514263;31;34006;-84
2022/06/11 11:24:25;;;;;;;;;;;;;;;30.23;35.50;99316.84;4515402;31;33574;-84
2022/06/11 11:26:57;;;;;;;;;;;;;;;30.40;36.08;99307.72;4514273;31;34386;-84
2022/06/11 11:29:26;;;;;;;;;;;;;;;29.62;37.03;99300.25;4495683;31;34145;-83
2022/06/11 11:31:57;;;;;;;;;;;;;;;29.65;36.61;99299.19;4482799;32;34319;-82
2022/06/11 11:34:25;;;;;;;;;;;;;;;30.25;35.79;99290.88;4482126;32;33474;-84
2022/06/11 11:36:58;;;;;;;;;;;;;;;29.50;37.28;99291.16;4482719;32;34030;-86
2022/06/11 11:39:29;;;;;;;;;;;;;;;29.68;37.04;99291.00;4499102;31;35100;-85
2022/06/11 11:42:06;;;;;;;;;;;;;;;29.24;37.65;99289.28;4513902;31;34194;-84
2022/06/11 11:44:46;;;;;;;;;;;;;;;29.23;37.96;99290.22;4515211;31;33472;-85
2022/06/11 11:47:16;;;;;;;;;;;;;;;29.68;36.45;99288.31;4515083;31;34994;-85
2022/06/11 11:49:46;;;;;;;;;;;;;;;29.73;38.26;99286.22;4505224;31;34211;-84
2022/06/11 11:52:18;;;;;;;;;;;;;;;30.28;35.73;99278.16;4497733;31;34200;-83
2022/06/11 11:55:08;;;;;;;;;;;;;;;30.21;36.09;99267.97;4498136;31;33258;-84
2022/06/11 11:57:35;;;;;;;;;;;;;;;30.35;35.76;99270.56;4499184;31;33744;-84
2022/06/11 12:00:05;;;;;;;;;;;;;;;30.25;34.98;99277.50;4498397;31;34443;-83
2022/06/11 12:02:37;;;;;;;;;;;;;;;30.96;35.75;99263.72;4491740;31;34047;-84
2022/06/11 12:05:10;;;;;;;;;;;;;;;31.85;32.17;99264.56;4498962;31;34143;-82
2022/06/11 12:07:39;;;;;;;;;;;;;;;30.55;35.79;99266.53;4497982;31;34467;-86
2022/06/11 12:10:10;;;;;;;;;;;;;;;30.50;36.18;99261.50;4485915;31;34233;-85
2022/06/11 12:12:37;;;;;;;;;;;;;;;30.70;35.63;99257.47;4497923;31;33730;-86
2022/06/11 12:15:24;;;;;;;;;;;;;;;30.77;34.72;99268.66;4497876;31;34118;-84
2022/06/11 12:18:00;;;;;;;;;;;;;;;30.23;34.60;99264.22;4499341;31;34011;-84
2022/06/11 12:20:31;;;;;;;;;;;;;;;31.06;33.34;99266.59;4497870;31;34330;-85
2022/06/11 12:23:04;;;;;;;;;;;;;;;30.82;34.93;99261.16;4499066;31;33608;-82
2022/06/11 12:25:34;;;;;;;;;;;;;;;31.60;32.95;99274.41;4499644;31;33140;-83
2022/06/11 12:28:01;;;;;;;;;;;;;;;31.73;31.36;99256.44;4497852;31;34003;-84
2022/06/11 12:30:29;;;;;;;;;;;;;;;31.19;32.52;99264.78;4498947;31;34165;-82
2022/06/11 12:32:57;;;;;;;;;;;;;;;31.64;32.62;99275.03;4499091;31;34043;-83
2022/06/11 12:35:36;;;;;;;;;;;;;;;31.18;33.17;99267.59;4499076;31;33225;-85
2022/06/11 12:38:07;;;;;;;;;;;;;;;31.22;33.74;99274.44;4510297;31;34367;-85
2022/06/11 12:40:38;;;;;;;;;;;;;;;30.75;32.82;99266.06;4514972;31;34222;-84
2022/06/11 12:43:05;;;;;;;;;;;;;;;31.30;33.68;99272.09;4514808;31;34770;-86
2022/06/11 12:45:41;;;;;;;;;;;;;;;30.74;34.04;99252.78;4512154;31;33516;-86
2022/06/11 12:48:31;;;;;;;;;;;;;;;30.39;34.79;99253.34;4498586;31;35126;-84
2022/06/11 12:51:03;;;;;;;;;;;;;;;30.75;33.96;99265.22;4498966;31;35186;-85
2022/06/11 12:53:36;;;;;;;;;;;;;;;31.04;34.32;99259.66;4497277;31;34951;-87
2022/06/11 12:56:22;;;;;;;;;;;;;;;30.93;33.22;99253.22;4504054;31;33475;-85
2022/06/11 12:58:52;;;;;;;;;;;;;;;30.62;34.66;99248.25;4508300;31;34012;-86
2022/06/11 13:01:23;;;;;;;;;;;;;;;30.83;34.76;99246.78;4498562;31;34145;-83
2022/06/11 13:03:59;;;;;;;;;;;;;;;31.29;33.21;99248.91;4497062;31;34860;-84
2022/06/11 13:06:29;;;;;;;;;;;;;;;31.23;31.90;99252.03;4494013;31;33109;-83
2022/06/11 13:09:15;;;;;;;;;;;;;;;30.81;32.78;99246.06;4498717;31;33898;-83